Time;durP1;ratioP1;P1;durP2;ratioP2;P2;SDS_P1;SDS_P2;PMS_P1;PMS_P2;Temp;Humidity;BMP_temperature;BMP_pressure;BME280_temperature;BME280_humidity;BME280_pressure;Samples;Min_cycle;Max_cycle;Signal;HPM_P1;HPM_P2
2021/07/19 00:00:09;;;;;;;13.75;8.18;;;;;;;;;;5029236;28;20148;-68
2021/07/19 00:02:39;;;;;;;12.75;8.10;;;;;;;;;;5029378;28;20057;-68
2021/07/19 00:05:08;;;;;;;10.35;7.28;;;;;;;;;;5028564;28;20049;-68
2021/07/19 00:07:38;;;;;;;12.00;7.80;;;;;;;;;;5027563;28;20164;-68
2021/07/19 00:10:07;;;;;;;14.25;7.35;;;;;;;;;;5030187;28;20136;-68
2021/07/19 00:12:36;;;;;;;13.75;7.80;;;;;;;;;;5023760;28;20137;-69
2021/07/19 00:15:04;;;;;;;13.88;7.75;;;;;;;;;;5029753;28;20045;-68
2021/07/19 00:17:33;;;;;;;11.00;7.55;;;;;;;;;;5029293;28;20054;-68
2021/07/19 00:20:02;;;;;;;12.23;7.38;;;;;;;;;;5029911;28;20087;-68
2021/07/19 00:22:31;;;;;;;11.48;7.65;;;;;;;;;;5029247;28;20053;-68
2021/07/19 00:24:59;;;;;;;11.90;7.45;;;;;;;;;;5029280;28;20336;-68
2021/07/19 00:27:27;;;;;;;11.93;7.70;;;;;;;;;;5028679;28;20066;-68
2021/07/19 00:29:55;;;;;;;9.73;7.07;;;;;;;;;;5029785;28;20103;-68
2021/07/19 00:32:24;;;;;;;14.20;7.88;;;;;;;;;;5028194;28;20048;-68
2021/07/19 00:34:52;;;;;;;11.35;7.47;;;;;;;;;;5030318;28;20063;-69
2021/07/19 00:37:21;;;;;;;10.52;7.63;;;;;;;;;;5032942;28;20152;-68
2021/07/19 00:39:50;;;;;;;12.02;7.18;;;;;;;;;;5029073;28;20053;-68
2021/07/19 00:42:18;;;;;;;13.07;7.82;;;;;;;;;;5034194;28;20140;-68
2021/07/19 00:44:47;;;;;;;12.30;7.57;;;;;;;;;;5022767;28;20180;-68
2021/07/19 00:47:16;;;;;;;11.95;7.55;;;;;;;;;;5033565;28;20049;-68
2021/07/19 00:49:45;;;;;;;12.70;7.65;;;;;;;;;;5032285;28;20481;-68
2021/07/19 00:52:14;;;;;;;9.68;7.22;;;;;;;;;;5024637;28;20084;-68
2021/07/19 00:54:44;;;;;;;12.77;7.95;;;;;;;;;;5032023;28;20045;-68
2021/07/19 00:57:15;;;;;;;10.52;6.75;;;;;;;;;;5034302;28;20060;-68
2021/07/19 00:59:43;;;;;;;10.07;6.65;;;;;;;;;;5033284;28;20449;-68
2021/07/19 01:02:13;;;;;;;9.50;6.63;;;;;;;;;;5032471;28;20463;-69
2021/07/19 01:04:42;;;;;;;8.90;6.55;;;;;;;;;;5068482;23;20056;-69
2021/07/19 01:07:11;;;;;;;11.60;6.90;;;;;;;;;;5049483;28;20141;-70
2021/07/19 01:09:39;;;;;;;11.18;7.20;;;;;;;;;;5049671;28;20073;-71
2021/07/19 01:12:09;;;;;;;10.98;6.80;;;;;;;;;;5051936;28;20568;-69
2021/07/19 01:14:37;;;;;;;10.30;7.25;;;;;;;;;;5052208;28;20132;-69
2021/07/19 01:17:07;;;;;;;11.85;8.07;;;;;;;;;;5053532;28;20052;-70
2021/07/19 01:19:36;;;;;;;12.35;6.82;;;;;;;;;;5052361;28;20124;-70
2021/07/19 01:22:16;;;;;;;13.68;8.00;;;;;;;;;;5051986;28;20076;-70
2021/07/19 01:24:47;;;;;;;9.02;6.05;;;;;;;;;;5052008;28;20127;-69
2021/07/19 01:27:30;;;;;;;14.45;7.35;;;;;;;;;;5053031;28;20052;-69
2021/07/19 01:30:00;;;;;;;11.15;7.70;;;;;;;;;;5051002;28;20049;-69
2021/07/19 01:32:29;;;;;;;11.40;7.60;;;;;;;;;;5052210;28;20415;-69
2021/07/19 01:34:59;;;;;;;12.10;7.15;;;;;;;;;;5051673;28;20052;-69
2021/07/19 01:37:28;;;;;;;13.23;7.30;;;;;;;;;;5040683;28;20076;-70
2021/07/19 01:39:57;;;;;;;12.80;7.63;;;;;;;;;;5051787;28;20144;-69
2021/07/19 01:42:25;;;;;;;10.25;6.97;;;;;;;;;;5051696;28;20079;-69
2021/07/19 01:44:55;;;;;;;13.90;7.20;;;;;;;;;;5050456;28;20125;-69
2021/07/19 01:47:24;;;;;;;12.27;7.53;;;;;;;;;;5050492;28;20091;-69
2021/07/19 01:49:53;;;;;;;9.68;6.63;;;;;;;;;;5051323;28;20140;-69
2021/07/19 01:52:21;;;;;;;11.38;6.82;;;;;;;;;;5051135;28;20075;-71
2021/07/19 01:54:50;;;;;;;9.80;7.00;;;;;;;;;;5050847;28;20461;-70
2021/07/19 01:57:18;;;;;;;9.90;6.40;;;;;;;;;;5051689;28;20048;-70
2021/07/19 01:59:47;;;;;;;11.05;6.75;;;;;;;;;;5051402;28;20073;-68
2021/07/19 02:02:18;;;;;;;10.20;6.85;;;;;;;;;;5050276;28;20046;-68
2021/07/19 02:04:48;;;;;;;11.40;7.40;;;;;;;;;;5050753;28;20099;-69
2021/07/19 02:07:17;;;;;;;11.07;6.70;;;;;;;;;;5051655;28;20041;-68
2021/07/19 02:09:47;;;;;;;11.27;7.40;;;;;;;;;;5051343;28;20132;-69
2021/07/19 02:12:15;;;;;;;10.68;7.15;;;;;;;;;;5047972;28;20499;-69
2021/07/19 02:14:44;;;;;;;11.45;7.18;;;;;;;;;;5051200;28;20452;-69
2021/07/19 02:17:13;;;;;;;15.55;7.10;;;;;;;;;;5051117;28;20112;-70
2021/07/19 02:19:42;;;;;;;9.63;6.80;;;;;;;;;;5038534;28;20041;-68
2021/07/19 02:22:12;;;;;;;13.00;7.28;;;;;;;;;;5050623;28;20123;-68
2021/07/19 02:24:41;;;;;;;10.80;7.15;;;;;;;;;;5051798;28;20493;-69
2021/07/19 02:27:09;;;;;;;14.02;8.27;;;;;;;;;;5051065;28;20140;-68
2021/07/19 02:29:38;;;;;;;10.75;7.18;;;;;;;;;;5051190;28;20348;-69
2021/07/19 02:32:07;;;;;;;12.80;7.82;;;;;;;;;;5050628;28;20128;-69
2021/07/19 02:34:38;;;;;;;9.90;7.40;;;;;;;;;;5050498;28;20041;-69
2021/07/19 02:37:07;;;;;;;11.07;7.13;;;;;;;;;;5050313;28;20624;-69
2021/07/19 02:39:37;;;;;;;10.93;7.43;;;;;;;;;;5050789;28;20080;-69
2021/07/19 02:42:06;;;;;;;11.98;6.90;;;;;;;;;;5050874;28;20077;-68
2021/07/19 02:44:35;;;;;;;12.38;7.07;;;;;;;;;;5049774;28;20176;-69
2021/07/19 02:47:03;;;;;;;11.43;6.78;;;;;;;;;;5050249;28;20053;-68
2021/07/19 02:49:32;;;;;;;11.90;7.10;;;;;;;;;;5049004;28;20041;-69
2021/07/19 02:52:01;;;;;;;8.82;6.70;;;;;;;;;;5050981;28;20167;-68
2021/07/19 02:54:30;;;;;;;12.27;6.70;;;;;;;;;;5050531;28;20144;-68
2021/07/19 02:57:00;;;;;;;13.07;7.00;;;;;;;;;;5051161;28;20134;-69
2021/07/19 02:59:29;;;;;;;11.80;6.82;;;;;;;;;;5049748;28;20051;-69
2021/07/19 03:01:58;;;;;;;12.20;6.93;;;;;;;;;;5051320;28;20047;-69
2021/07/19 03:04:27;;;;;;;11.60;7.13;;;;;;;;;;5048965;28;20057;-69
2021/07/19 03:06:58;;;;;;;10.85;7.07;;;;;;;;;;5034581;28;20100;-69
2021/07/19 03:09:28;;;;;;;11.60;6.93;;;;;;;;;;5041113;28;20049;-68
2021/07/19 03:11:57;;;;;;;12.82;7.40;;;;;;;;;;5051311;28;20052;-69
2021/07/19 03:14:27;;;;;;;9.75;7.00;;;;;;;;;;5049323;28;20095;-68
2021/07/19 03:16:56;;;;;;;11.80;7.18;;;;;;;;;;5050934;28;20129;-69
2021/07/19 03:19:24;;;;;;;9.77;6.60;;;;;;;;;;5049704;28;20340;-69
2021/07/19 03:21:54;;;;;;;10.95;7.43;;;;;;;;;;5051237;28;20136;-69
2021/07/19 03:24:23;;;;;;;11.75;7.20;;;;;;;;;;5049714;28;20148;-69
2021/07/19 03:26:53;;;;;;;10.82;6.75;;;;;;;;;;5049477;28;20131;-69
2021/07/19 03:29:22;;;;;;;13.55;7.80;;;;;;;;;;5050338;28;20041;-69
2021/07/19 03:31:53;;;;;;;11.55;7.30;;;;;;;;;;5050854;28;20284;-69
2021/07/19 03:34:25;;;;;;;11.95;7.05;;;;;;;;;;1427209;28;10022784;-70
2021/07/19 03:36:53;;;;;;;13.45;7.40;;;;;;;;;;4004167;28;10001732;-69
2021/07/19 03:39:23;;;;;;;15.27;7.75;;;;;;;;;;5048194;28;20081;-70
2021/07/19 03:41:51;;;;;;;10.52;7.25;;;;;;;;;;5050213;28;20084;-69
2021/07/19 03:44:19;;;;;;;11.27;7.10;;;;;;;;;;5049124;28;20552;-69
2021/07/19 03:46:48;;;;;;;10.90;7.70;;;;;;;;;;5050079;28;20526;-69
2021/07/19 03:49:19;;;;;;;11.25;7.10;;;;;;;;;;5049925;28;20045;-70
2021/07/19 03:51:48;;;;;;;14.65;7.90;;;;;;;;;;5050020;28;20041;-69
2021/07/19 03:54:16;;;;;;;13.13;7.28;;;;;;;;;;5048572;28;20124;-69
2021/07/19 03:56:45;;;;;;;12.18;7.20;;;;;;;;;;5047958;28;20135;-69
2021/07/19 03:59:13;;;;;;;12.75;6.65;;;;;;;;;;5049713;28;20099;-69
2021/07/19 04:01:42;;;;;;;11.38;7.00;;;;;;;;;;5049668;28;20492;-70
2021/07/19 04:04:17;;;;;;;13.30;7.40;;;;;;;;;;5049616;28;20139;-70
2021/07/19 04:06:47;;;;;;;15.23;7.15;;;;;;;;;;5048505;28;20140;-69
2021/07/19 04:09:15;;;;;;;12.00;7.68;;;;;;;;;;5048993;28;20131;-70
2021/07/19 04:11:44;;;;;;;15.00;7.72;;;;;;;;;;5049574;28;20140;-69
2021/07/19 04:14:13;;;;;;;15.15;8.20;;;;;;;;;;5048787;28;20455;-69
2021/07/19 04:16:41;;;;;;;12.75;8.90;;;;;;;;;;5049339;28;20079;-69
2021/07/19 04:19:13;;;;;;;11.35;7.90;;;;;;;;;;5048509;28;20080;-69
2021/07/19 04:21:41;;;;;;;14.50;8.45;;;;;;;;;;5048272;28;20571;-69
2021/07/19 04:24:12;;;;;;;14.18;7.57;;;;;;;;;;5048671;28;20135;-69
2021/07/19 04:26:40;;;;;;;14.88;7.85;;;;;;;;;;5048180;28;20071;-69
2021/07/19 04:29:08;;;;;;;14.88;8.05;;;;;;;;;;5048812;28;20084;-69
2021/07/19 04:31:37;;;;;;;16.02;8.57;;;;;;;;;;5048645;28;20501;-69
2021/07/19 04:34:05;;;;;;;16.13;8.20;;;;;;;;;;5048577;28;20077;-71
2021/07/19 04:36:33;;;;;;;16.38;8.23;;;;;;;;;;5049612;28;20047;-69
2021/07/19 04:39:02;;;;;;;14.05;8.45;;;;;;;;;;5047283;28;20047;-69
2021/07/19 04:41:31;;;;;;;13.43;7.90;;;;;;;;;;5046840;28;20523;-69
2021/07/19 04:44:00;;;;;;;12.50;8.00;;;;;;;;;;5047130;28;20072;-69
2021/07/19 04:46:29;;;;;;;17.25;8.50;;;;;;;;;;5034009;28;20046;-70
2021/07/19 04:48:57;;;;;;;14.48;8.63;;;;;;;;;;5043374;28;20052;-71
2021/07/19 04:51:26;;;;;;;17.33;8.73;;;;;;;;;;5041630;28;20128;-70
2021/07/19 04:53:55;;;;;;;12.85;8.73;;;;;;;;;;5044844;28;20417;-70
2021/07/19 04:56:24;;;;;;;12.35;8.38;;;;;;;;;;5030778;28;20135;-70
2021/07/19 04:58:54;;;;;;;13.85;8.60;;;;;;;;;;5038238;28;20165;-70
2021/07/19 05:01:24;;;;;;;11.98;8.30;;;;;;;;;;5044625;28;20055;-70
2021/07/19 05:03:54;;;;;;;19.45;9.55;;;;;;;;;;5035351;28;20057;-69
2021/07/19 05:06:24;;;;;;;14.80;8.90;;;;;;;;;;5037380;28;20128;-72
2021/07/19 05:08:53;;;;;;;14.30;8.25;;;;;;;;;;5028192;28;20065;-70
2021/07/19 05:11:22;;;;;;;15.25;9.27;;;;;;;;;;5029781;28;20445;-70
2021/07/19 05:13:51;;;;;;;18.45;8.40;;;;;;;;;;5036215;28;20055;-73
2021/07/19 05:16:21;;;;;;;15.40;8.93;;;;;;;;;;5043289;28;20377;-69
2021/07/19 05:18:50;;;;;;;13.95;8.85;;;;;;;;;;5028742;28;20057;-69
2021/07/19 05:21:18;;;;;;;13.60;8.88;;;;;;;;;;5040038;28;20504;-68
2021/07/19 05:23:47;;;;;;;18.63;11.77;;;;;;;;;;5039245;28;20136;-71
2021/07/19 05:26:15;;;;;;;14.63;9.18;;;;;;;;;;5043417;28;20084;-69
2021/07/19 05:28:44;;;;;;;14.82;10.02;;;;;;;;;;5044465;28;20108;-68
2021/07/19 05:31:12;;;;;;;16.23;9.20;;;;;;;;;;5038028;28;20046;-69
2021/07/19 05:33:42;;;;;;;13.43;9.65;;;;;;;;;;5043916;28;20045;-69
2021/07/19 05:36:11;;;;;;;25.40;12.32;;;;;;;;;;5042444;28;20475;-69
2021/07/19 05:38:41;;;;;;;17.38;10.15;;;;;;;;;;5043939;28;20079;-73
2021/07/19 05:41:10;;;;;;;15.75;10.93;;;;;;;;;;5043678;28;20056;-68
2021/07/19 05:43:39;;;;;;;17.15;12.00;;;;;;;;;;5044621;28;20052;-71
2021/07/19 05:46:08;;;;;;;24.20;12.77;;;;;;;;;;5038024;28;20067;-72
2021/07/19 05:48:37;;;;;;;16.92;10.38;;;;;;;;;;5041591;28;20094;-71
2021/07/19 05:51:10;;;;;;;27.38;13.32;;;;;;;;;;5043601;28;20063;-70
2021/07/19 05:53:39;;;;;;;21.30;12.15;;;;;;;;;;4822346;28;21084;-71
2021/07/19 05:56:11;;;;;;;16.65;11.27;;;;;;;;;;4605562;28;20156;-74
2021/07/19 05:58:42;;;;;;;18.13;11.18;;;;;;;;;;4694765;28;20084;-73
2021/07/19 06:01:10;;;;;;;23.33;12.15;;;;;;;;;;5015414;28;20539;-71
2021/07/19 06:03:38;;;;;;;16.55;9.95;;;;;;;;;;5046078;28;20451;-70
2021/07/19 06:06:13;;;;;;;19.55;12.05;;;;;;;;;;5042362;28;20079;-71
2021/07/19 06:08:43;;;;;;;18.70;11.27;;;;;;;;;;5040021;28;20053;-71
2021/07/19 06:11:12;;;;;;;18.48;10.98;;;;;;;;;;5046190;28;20049;-69
2021/07/19 06:13:44;;;;;;;17.88;12.30;;;;;;;;;;5036568;28;20140;-69
2021/07/19 06:16:12;;;;;;;18.90;10.95;;;;;;;;;;5041350;28;20049;-71
2021/07/19 06:18:41;;;;;;;20.60;11.88;;;;;;;;;;5035871;28;20049;-70
2021/07/19 06:21:09;;;;;;;19.05;11.65;;;;;;;;;;5045738;28;20052;-69
2021/07/19 06:23:38;;;;;;;18.05;12.27;;;;;;;;;;5036904;28;20118;-69
2021/07/19 06:26:07;;;;;;;22.55;11.25;;;;;;;;;;5040851;28;20474;-70
2021/07/19 06:28:35;;;;;;;20.98;11.20;;;;;;;;;;5036242;28;20049;-71
2021/07/19 06:31:03;;;;;;;23.35;13.25;;;;;;;;;;5035811;28;20057;-70
2021/07/19 06:33:32;;;;;;;23.13;12.90;;;;;;;;;;5041721;28;20455;-70
2021/07/19 06:36:00;;;;;;;16.95;11.43;;;;;;;;;;5033827;28;20509;-70
2021/07/19 06:38:29;;;;;;;18.65;12.73;;;;;;;;;;5039761;28;20049;-69
2021/07/19 06:40:58;;;;;;;23.67;12.43;;;;;;;;;;5035277;28;20126;-68
2021/07/19 06:43:27;;;;;;;21.70;13.05;;;;;;;;;;5043610;28;20569;-68
2021/07/19 06:45:55;;;;;;;22.30;11.98;;;;;;;;;;5028687;28;20143;-70
2021/07/19 06:48:23;;;;;;;19.05;12.10;;;;;;;;;;5035955;28;20068;-70
2021/07/19 06:50:52;;;;;;;18.08;11.98;;;;;;;;;;5046036;28;20106;-70
2021/07/19 06:53:20;;;;;;;21.15;13.57;;;;;;;;;;5039649;28;20130;-71
2021/07/19 06:55:49;;;;;;;20.98;13.18;;;;;;;;;;5046898;28;20075;-71
2021/07/19 06:58:19;;;;;;;22.05;14.02;;;;;;;;;;5042505;28;20462;-71
2021/07/19 07:00:47;;;;;;;18.60;12.38;;;;;;;;;;5045686;28;20080;-71
2021/07/19 07:03:16;;;;;;;23.27;12.00;;;;;;;;;;5034005;28;20060;-71
2021/07/19 07:05:45;;;;;;;18.42;11.95;;;;;;;;;;5043854;28;20335;-70
2021/07/19 07:08:15;;;;;;;20.95;10.63;;;;;;;;;;5042813;28;20053;-71
2021/07/19 07:10:44;;;;;;;18.02;11.80;;;;;;;;;;5037526;28;20072;-71
2021/07/19 07:13:13;;;;;;;20.73;11.70;;;;;;;;;;5045996;28;20055;-70
2021/07/19 07:15:43;;;;;;;21.23;11.90;;;;;;;;;;5040820;28;20144;-72
2021/07/19 07:18:12;;;;;;;18.17;11.00;;;;;;;;;;5046495;28;20507;-70
2021/07/19 07:20:41;;;;;;;19.85;12.15;;;;;;;;;;5045704;28;20098;-73
2021/07/19 07:23:09;;;;;;;18.88;11.25;;;;;;;;;;5045236;28;20080;-70
2021/07/19 07:25:38;;;;;;;19.15;11.13;;;;;;;;;;5045705;28;20056;-71
2021/07/19 07:28:06;;;;;;;23.05;11.43;;;;;;;;;;5046572;28;20103;-72
2021/07/19 07:30:35;;;;;;;19.98;10.75;;;;;;;;;;5045534;28;20480;-71
2021/07/19 07:33:06;;;;;;;18.30;10.75;;;;;;;;;;5040130;28;20056;-70
2021/07/19 07:35:40;;;;;;;15.52;10.75;;;;;;;;;;5045153;28;20072;-70
2021/07/19 07:38:08;;;;;;;13.82;10.18;;;;;;;;;;5039619;28;20570;-70
2021/07/19 07:40:37;;;;;;;20.27;9.77;;;;;;;;;;5037483;28;20053;-71
2021/07/19 07:43:06;;;;;;;19.05;9.25;;;;;;;;;;5046207;28;20669;-70
2021/07/19 07:45:34;;;;;;;16.80;9.93;;;;;;;;;;5039749;28;20052;-71
2021/07/19 07:48:04;;;;;;;13.05;8.50;;;;;;;;;;5044959;28;20083;-70
2021/07/19 07:50:33;;;;;;;17.52;9.63;;;;;;;;;;5044367;28;20150;-71
2021/07/19 07:53:01;;;;;;;14.57;8.50;;;;;;;;;;5042455;28;20049;-71
2021/07/19 07:55:30;;;;;;;14.38;8.60;;;;;;;;;;5041497;28;20041;-70
2021/07/19 07:58:01;;;;;;;12.27;8.00;;;;;;;;;;5037176;28;20045;-71
2021/07/19 08:00:29;;;;;;;14.85;8.18;;;;;;;;;;5036583;28;20083;-71
2021/07/19 08:02:58;;;;;;;13.45;8.35;;;;;;;;;;5042782;28;20076;-70
2021/07/19 08:05:28;;;;;;;14.68;8.38;;;;;;;;;;5038285;28;20827;-69
2021/07/19 08:07:57;;;;;;;14.00;8.13;;;;;;;;;;5036245;28;20095;-73
2021/07/19 08:10:25;;;;;;;14.30;7.20;;;;;;;;;;5042562;28;20135;-69
2021/07/19 08:12:54;;;;;;;13.43;7.72;;;;;;;;;;5025480;28;20068;-69
2021/07/19 08:15:22;;;;;;;12.23;6.97;;;;;;;;;;5033346;28;20056;-69
2021/07/19 08:17:51;;;;;;;12.55;6.72;;;;;;;;;;5037829;28;20072;-71
2021/07/19 08:20:19;;;;;;;10.40;6.55;;;;;;;;;;5039655;28;20046;-69
2021/07/19 08:22:49;;;;;;;11.45;7.28;;;;;;;;;;5034659;28;20045;-70
2021/07/19 08:25:18;;;;;;;11.02;6.68;;;;;;;;;;5036713;28;20489;-72
2021/07/19 08:27:46;;;;;;;10.30;6.35;;;;;;;;;;5040152;28;20107;-70
2021/07/19 08:30:15;;;;;;;9.13;6.72;;;;;;;;;;5035320;28;20393;-70
2021/07/19 08:32:45;;;;;;;10.95;6.32;;;;;;;;;;5042494;28;20170;-71
2021/07/19 08:35:14;;;;;;;10.73;6.53;;;;;;;;;;5041362;28;20048;-70
2021/07/19 08:37:44;;;;;;;11.27;6.75;;;;;;;;;;5038754;28;20084;-71
2021/07/19 08:40:15;;;;;;;10.48;6.05;;;;;;;;;;5032817;28;20401;-70
2021/07/19 08:42:43;;;;;;;8.48;5.78;;;;;;;;;;5031395;28;20091;-71
2021/07/19 08:45:12;;;;;;;13.07;5.57;;;;;;;;;;5038228;28;20064;-71
2021/07/19 08:47:42;;;;;;;11.27;5.68;;;;;;;;;;5036897;28;20053;-70
2021/07/19 08:50:11;;;;;;;8.00;5.18;;;;;;;;;;5037287;28;20048;-70
2021/07/19 08:52:40;;;;;;;7.78;5.43;;;;;;;;;;5038584;28;20073;-70
2021/07/19 08:55:10;;;;;;;8.57;5.22;;;;;;;;;;5037419;28;20056;-71
2021/07/19 08:57:40;;;;;;;8.55;5.18;;;;;;;;;;5039889;28;20041;-71
2021/07/19 09:00:11;;;;;;;10.75;5.32;;;;;;;;;;5032936;28;20057;-72
2021/07/19 09:02:40;;;;;;;7.78;4.82;;;;;;;;;;5039738;28;20504;-69
2021/07/19 09:05:09;;;;;;;7.00;4.75;;;;;;;;;;5034007;28;20148;-70
2021/07/19 09:07:38;;;;;;;7.45;4.68;;;;;;;;;;5031249;28;20447;-70
2021/07/19 09:10:09;;;;;;;8.38;4.80;;;;;;;;;;5042183;28;20084;-73
2021/07/19 09:12:40;;;;;;;5.18;4.10;;;;;;;;;;5035517;28;20475;-71
2021/07/19 09:15:10;;;;;;;7.10;4.15;;;;;;;;;;5040283;28;20058;-72
2021/07/19 09:17:39;;;;;;;7.85;4.35;;;;;;;;;;5031346;28;20534;-71
2021/07/19 09:20:09;;;;;;;6.60;4.72;;;;;;;;;;5037216;28;20136;-70
2021/07/19 09:22:38;;;;;;;7.30;4.00;;;;;;;;;;5038337;28;20706;-72
2021/07/19 09:25:10;;;;;;;6.65;3.85;;;;;;;;;;5044834;28;20109;-71
2021/07/19 09:27:51;;;;;;;7.43;3.95;;;;;;;;;;5041652;28;20503;-73
2021/07/19 09:30:21;;;;;;;9.38;5.10;;;;;;;;;;5034283;28;20551;-70
2021/07/19 09:32:57;;;;;;;6.55;4.68;;;;;;;;;;5040015;28;20755;-72
2021/07/19 09:35:26;;;;;;;8.02;5.10;;;;;;;;;;5040748;28;20075;-70
2021/07/19 09:37:54;;;;;;;6.82;4.57;;;;;;;;;;5043914;28;20076;-70
2021/07/19 09:40:30;;;;;;;7.22;4.82;;;;;;;;;;5043053;28;20078;-71
2021/07/19 09:43:00;;;;;;;6.72;4.43;;;;;;;;;;5038788;28;20095;-72
2021/07/19 09:45:30;;;;;;;6.88;4.95;;;;;;;;;;5034286;28;20153;-70
2021/07/19 09:48:02;;;;;;;7.97;4.88;;;;;;;;;;5044376;28;20048;-71
2021/07/19 09:50:39;;;;;;;5.82;4.55;;;;;;;;;;5035730;28;20084;-70
2021/07/19 09:53:07;;;;;;;6.70;4.63;;;;;;;;;;5036991;28;20485;-71
2021/07/19 09:55:36;;;;;;;12.02;4.80;;;;;;;;;;5034897;28;20061;-71
2021/07/19 09:58:06;;;;;;;7.55;4.60;;;;;;;;;;5039507;28;20163;-71
2021/07/19 10:00:35;;;;;;;7.65;4.47;;;;;;;;;;5046470;28;20139;-71
2021/07/19 10:03:12;;;;;;;6.35;4.55;;;;;;;;;;5041698;28;20061;-70
2021/07/19 10:05:41;;;;;;;8.18;4.53;;;;;;;;;;5037127;28;20045;-71
2021/07/19 10:08:21;;;;;;;9.60;4.43;;;;;;;;;;5039595;28;20504;-72
2021/07/19 10:10:49;;;;;;;8.65;4.80;;;;;;;;;;5039466;28;20150;-71
2021/07/19 10:13:19;;;;;;;8.52;4.57;;;;;;;;;;5031147;28;20094;-72
2021/07/19 10:15:49;;;;;;;9.27;4.82;;;;;;;;;;5042733;28;20048;-71
2021/07/19 10:18:19;;;;;;;9.48;4.53;;;;;;;;;;5035086;28;20049;-71
2021/07/19 10:20:48;;;;;;;9.02;4.03;;;;;;;;;;5028132;28;20053;-70
2021/07/19 10:23:17;;;;;;;7.15;4.07;;;;;;;;;;5043185;28;20118;-73
2021/07/19 10:25:46;;;;;;;7.70;3.85;;;;;;;;;;5039056;28;20045;-71
2021/07/19 10:28:15;;;;;;;7.32;4.20;;;;;;;;;;5042246;28;20455;-72
2021/07/19 10:30:45;;;;;;;5.53;3.42;;;;;;;;;;5042543;28;20049;-71
2021/07/19 10:33:13;;;;;;;7.75;4.05;;;;;;;;;;5044334;28;20087;-71
2021/07/19 10:35:43;;;;;;;5.65;3.53;;;;;;;;;;5044204;28;20045;-70
2021/07/19 10:38:29;;;;;;;8.40;4.10;;;;;;;;;;5041799;28;20051;-70
2021/07/19 10:40:58;;;;;;;7.50;3.38;;;;;;;;;;5045512;28;20472;-70
2021/07/19 10:43:29;;;;;;;4.45;3.50;;;;;;;;;;5046439;28;20045;-70
2021/07/19 10:46:09;;;;;;;7.88;3.67;;;;;;;;;;5027349;28;20058;-70
2021/07/19 10:48:37;;;;;;;4.35;3.13;;;;;;;;;;5034559;28;20053;-71
2021/07/19 10:51:16;;;;;;;4.90;3.65;;;;;;;;;;5038678;28;20102;-72
2021/07/19 10:53:45;;;;;;;4.35;3.28;;;;;;;;;;5045053;28;20137;-70
2021/07/19 10:56:14;;;;;;;10.10;3.47;;;;;;;;;;5046151;28;20493;-70
2021/07/19 10:58:47;;;;;;;4.93;3.50;;;;;;;;;;5040292;28;20049;-70
2021/07/19 11:01:27;;;;;;;8.43;3.40;;;;;;;;;;5045738;28;20131;-70
2021/07/19 11:03:57;;;;;;;6.18;3.78;;;;;;;;;;5045412;28;20105;-71
2021/07/19 11:06:32;;;;;;;5.00;3.53;;;;;;;;;;5041216;28;20458;-71
2021/07/19 11:09:01;;;;;;;7.18;3.85;;;;;;;;;;5046943;28;20378;-71
2021/07/19 11:11:30;;;;;;;8.02;3.20;;;;;;;;;;5044771;28;20098;-71
2021/07/19 11:14:00;;;;;;;12.40;3.30;;;;;;;;;;5047234;28;20136;-72
2021/07/19 11:16:39;;;;;;;6.55;3.40;;;;;;;;;;5046452;28;20052;-70
2021/07/19 11:19:07;;;;;;;8.52;3.22;;;;;;;;;;5030614;28;20412;-71
2021/07/19 11:21:36;;;;;;;6.32;3.17;;;;;;;;;;5041393;28;20041;-71
2021/07/19 11:24:08;;;;;;;6.60;3.70;;;;;;;;;;5044756;28;20099;-71
2021/07/19 11:26:47;;;;;;;6.90;3.35;;;;;;;;;;5046735;28;20102;-71
2021/07/19 11:29:26;;;;;;;8.75;3.05;;;;;;;;;;5044017;28;20076;-71
2021/07/19 11:32:05;;;;;;;4.68;3.10;;;;;;;;;;5045907;28;20542;-70
2021/07/19 11:34:34;;;;;;;5.88;2.70;;;;;;;;;;5045165;28;20170;-71
2021/07/19 11:37:03;;;;;;;5.78;2.47;;;;;;;;;;5045239;28;20073;-70
2021/07/19 11:39:42;;;;;;;5.20;2.92;;;;;;;;;;5045616;28;20244;-71
2021/07/19 11:42:12;;;;;;;8.07;3.25;;;;;;;;;;5045189;28;20079;-70
2021/07/19 11:44:41;;;;;;;5.45;2.85;;;;;;;;;;5036052;28;20060;-71
2021/07/19 11:47:11;;;;;;;5.57;3.00;;;;;;;;;;5046043;28;20190;-70
2021/07/19 11:49:40;;;;;;;6.38;2.92;;;;;;;;;;5045547;28;20037;-70
2021/07/19 11:52:09;;;;;;;5.55;3.10;;;;;;;;;;5044897;28;20044;-71
2021/07/19 11:54:39;;;;;;;7.85;3.35;;;;;;;;;;5045425;28;20558;-72
2021/07/19 11:57:09;;;;;;;9.90;3.13;;;;;;;;;;5048534;28;20045;-71
2021/07/19 11:59:39;;;;;;;6.13;2.63;;;;;;;;;;5048438;28;20087;-72
2021/07/19 12:02:08;;;;;;;4.68;3.08;;;;;;;;;;5046316;28;20060;-72
2021/07/19 12:04:38;;;;;;;8.93;2.90;;;;;;;;;;5047348;28;20041;-72
2021/07/19 12:07:07;;;;;;;7.18;3.38;;;;;;;;;;5046345;28;20045;-72
2021/07/19 12:09:36;;;;;;;5.55;2.75;;;;;;;;;;5048008;28;20303;-72
2021/07/19 12:12:05;;;;;;;5.30;3.28;;;;;;;;;;5048165;28;20087;-71
2021/07/19 12:14:33;;;;;;;9.00;3.35;;;;;;;;;;5047287;28;20049;-71
2021/07/19 12:17:04;;;;;;;4.13;2.80;;;;;;;;;;5046163;28;20084;-72
2021/07/19 12:19:33;;;;;;;6.78;3.28;;;;;;;;;;5049818;28;20560;-71
2021/07/19 12:22:04;;;;;;;5.15;2.95;;;;;;;;;;5049273;28;20416;-70
2021/07/19 12:24:33;;;;;;;5.43;2.53;;;;;;;;;;5047453;28;20089;-71
2021/07/19 12:27:02;;;;;;;5.80;2.80;;;;;;;;;;5041358;28;20053;-72
2021/07/19 12:29:33;;;;;;;5.47;3.03;;;;;;;;;;5030697;28;20053;-71
2021/07/19 12:32:02;;;;;;;7.45;3.20;;;;;;;;;;5046034;28;20373;-72
2021/07/19 12:34:32;;;;;;;5.55;3.20;;;;;;;;;;5041071;28;20059;-72
2021/07/19 12:37:01;;;;;;;4.95;2.80;;;;;;;;;;5046382;28;20044;-72
2021/07/19 12:39:32;;;;;;;10.68;3.10;;;;;;;;;;5038319;28;20562;-72
2021/07/19 12:42:03;;;;;;;4.22;2.97;;;;;;;;;;5039071;28;20396;-72
2021/07/19 12:44:32;;;;;;;8.48;3.47;;;;;;;;;;5044075;28;20128;-72
2021/07/19 12:47:01;;;;;;;5.10;2.70;;;;;;;;;;5043980;28;20095;-72
2021/07/19 12:49:31;;;;;;;8.02;3.35;;;;;;;;;;5040092;28;20068;-72
2021/07/19 12:52:01;;;;;;;5.32;2.90;;;;;;;;;;5050463;28;20049;-72
2021/07/19 12:54:59;;;;;;;4.53;2.65;;;;;;;;;;5038615;28;20139;-73
2021/07/19 12:57:29;;;;;;;7.95;3.45;;;;;;;;;;5039865;28;20053;-71
2021/07/19 12:59:58;;;;;;;6.03;2.85;;;;;;;;;;5040805;28;20597;-73
2021/07/19 13:02:27;;;;;;;6.15;3.42;;;;;;;;;;5046647;28;20053;-72
2021/07/19 13:05:07;;;;;;;4.43;2.53;;;;;;;;;;5045836;28;20386;-72
2021/07/19 13:07:37;;;;;;;4.60;2.78;;;;;;;;;;5044292;28;20485;-72
2021/07/19 13:10:09;;;;;;;5.28;3.05;;;;;;;;;;5042855;28;20481;-73
2021/07/19 13:12:38;;;;;;;8.48;3.00;;;;;;;;;;5050922;28;20416;-71
2021/07/19 13:15:07;;;;;;;8.93;2.75;;;;;;;;;;5043228;28;20500;-73
2021/07/19 13:17:38;;;;;;;7.43;3.22;;;;;;;;;;5047816;28;20048;-72
2021/07/19 13:20:07;;;;;;;8.10;2.92;;;;;;;;;;5046279;28;20053;-72
2021/07/19 13:22:37;;;;;;;5.03;2.60;;;;;;;;;;5049817;28;20488;-72
2021/07/19 13:25:07;;;;;;;7.47;2.75;;;;;;;;;;5043543;28;20439;-71
2021/07/19 13:27:46;;;;;;;7.43;3.55;;;;;;;;;;5043846;28;20049;-73
2021/07/19 13:30:16;;;;;;;7.53;2.90;;;;;;;;;;5039540;28;20301;-72
2021/07/19 13:32:45;;;;;;;5.97;3.00;;;;;;;;;;5043787;28;20236;-72
2021/07/19 13:35:15;;;;;;;5.53;2.83;;;;;;;;;;5045291;28;20492;-71
2021/07/19 13:37:47;;;;;;;12.57;4.15;;;;;;;;;;5040383;28;20052;-72
2021/07/19 13:40:17;;;;;;;9.63;3.55;;;;;;;;;;5036046;28;20055;-72
2021/07/19 13:42:48;;;;;;;7.82;3.08;;;;;;;;;;5036298;28;20045;-73
2021/07/19 13:45:19;;;;;;;13.52;3.65;;;;;;;;;;5042148;28;20049;-72
2021/07/19 13:47:48;;;;;;;7.30;3.20;;;;;;;;;;5037198;28;20550;-72
2021/07/19 13:50:17;;;;;;;7.28;3.10;;;;;;;;;;5036941;28;20394;-73
2021/07/19 13:52:48;;;;;;;10.55;3.80;;;;;;;;;;5041194;28;20427;-73
2021/07/19 13:55:18;;;;;;;6.32;3.25;;;;;;;;;;5040273;28;20171;-72
2021/07/19 13:57:48;;;;;;;7.55;2.90;;;;;;;;;;5034743;28;20046;-72
2021/07/19 14:00:17;;;;;;;8.52;2.90;;;;;;;;;;5035065;28;20061;-72
2021/07/19 14:02:46;;;;;;;5.53;2.70;;;;;;;;;;5037252;28;20053;-72
2021/07/19 14:05:18;;;;;;;11.23;3.13;;;;;;;;;;5043695;28;20045;-72
2021/07/19 14:07:46;;;;;;;10.80;3.00;;;;;;;;;;5043552;28;20396;-72
2021/07/19 14:10:15;;;;;;;7.60;3.60;;;;;;;;;;5043517;28;20115;-73
2021/07/19 14:12:43;;;;;;;6.35;3.33;;;;;;;;;;5035414;28;20616;-72
2021/07/19 14:15:14;;;;;;;8.10;3.60;;;;;;;;;;5042092;28;20059;-73
2021/07/19 14:17:43;;;;;;;4.70;3.05;;;;;;;;;;5042286;28;20060;-71
2021/07/19 14:20:13;;;;;;;9.45;3.60;;;;;;;;;;5045562;28;20106;-72
2021/07/19 14:22:42;;;;;;;7.50;3.20;;;;;;;;;;5038128;28;20052;-74
2021/07/19 14:25:13;;;;;;;6.18;3.05;;;;;;;;;;5042883;28;20040;-73
2021/07/19 14:27:42;;;;;;;8.15;3.20;;;;;;;;;;5039801;28;20106;-73
2021/07/19 14:30:12;;;;;;;7.72;3.30;;;;;;;;;;5037801;28;20166;-72
2021/07/19 14:32:42;;;;;;;11.75;3.50;;;;;;;;;;5028158;28;20053;-73
2021/07/19 14:35:12;;;;;;;9.60;3.25;;;;;;;;;;5036831;28;20061;-73
2021/07/19 14:37:42;;;;;;;8.95;3.40;;;;;;;;;;5045702;28;20045;-74
2021/07/19 14:40:12;;;;;;;7.43;2.97;;;;;;;;;;5039181;28;20048;-72
2021/07/19 14:42:40;;;;;;;8.85;3.13;;;;;;;;;;5042517;28;20087;-71
2021/07/19 14:45:09;;;;;;;7.93;3.47;;;;;;;;;;5031430;28;20049;-72
2021/07/19 14:47:39;;;;;;;11.82;4.00;;;;;;;;;;5043064;28;20057;-73